PWSweather.com
Personal Weather Stations
Station Observations
KPASPRIN10
East Vincent, East Vincent, PA 19475

East VincentEast Vincent, PA 19475

Lat: 40.170948, Lon: -75.629681

Elevation: 404

Station Type: Davis VP2

http://www.evweather.com

Latest ConditionsUpdated 3:50:03 PM EST Sunday, Jan 19, 2020
Currently Today's Max Today's Min Today's Average
Temperature 33.5°F0.8°C 38.6°F3.7°C 33.0°F0.6°C 35.5°F1.9°C
Dew Point 21.5°F-5.8°C 34.9°F1.6°C 21.5°F-5.8°C 30.4°F-0.9°C
Winds 6.9 mph W11.1 kmh W 13.8 mph -22.2 kmh - - 5.8 mph 9.3 kmh
Wind Gusts 10.4 mph16.7 kmh 21.9 mph35.2 kmh - -
Humidity 61% 97% 60% 83%
Pressure 29.88 in1011.9 mb 29.88 in1011.9 mb 29.70 in1005.8 mb -
Precipitation - 0.34 in8.6 mm - -
Hour Temp Dew Point Humidity Winds Wind Gusts Pressure Precip Precip Rate Daily Precip Total
03:50 PM 33.5°F0.8°C 21.5°F-5.8°C 61% 6.9 mph W11.1 kmh W 10.4 mph16.7 kmh 29.88 in1011.9 mb - 0.00 in0.0 mm 0.34 in8.6 mm
03:40 PM 33.9°F1.1°C 21.5°F-5.8°C 60% 11.5 mph WNW18.5 kmh WNW 13.8 mph22.2 kmh 29.88 in1011.9 mb - 0.00 in0.0 mm 0.34 in8.6 mm
03:30 PM 34.1°F1.2°C 22.0°F-5.6°C 61% 4.6 mph W7.4 kmh W 11.5 mph18.5 kmh 29.87 in1011.5 mb - 0.00 in0.0 mm 0.34 in8.6 mm
03:20 PM 33.9°F1.1°C 22.2°F-5.4°C 62% 9.2 mph WNW14.8 kmh WNW 15.0 mph24.1 kmh 29.87 in1011.5 mb - 0.00 in0.0 mm 0.34 in8.6 mm
03:10 PM 34.2°F1.2°C 22.2°F-5.4°C 61% 13.8 mph WNW22.2 kmh WNW 20.7 mph33.3 kmh 29.87 in1011.5 mb - 0.00 in0.0 mm 0.34 in8.6 mm
03:00 PM 35.1°F1.7°C 23.0°F-5.0°C 61% 11.5 mph WNW18.5 kmh WNW 19.6 mph31.5 kmh 29.86 in1011.2 mb - 0.00 in0.0 mm 0.34 in8.6 mm
02:50 PM 35.6°F2.0°C 24.2°F-4.3°C 63% 3.5 mph NW5.6 kmh NW 10.4 mph16.7 kmh 29.85 in1010.8 mb - 0.00 in0.0 mm 0.34 in8.6 mm
02:40 PM 35.2°F1.8°C 23.9°F-4.5°C 63% 5.8 mph NW9.3 kmh NW 18.4 mph29.6 kmh 29.85 in1010.8 mb - 0.00 in0.0 mm 0.34 in8.6 mm
02:30 PM 34.8°F1.6°C 23.1°F-4.9°C 62% 5.8 mph WNW9.3 kmh WNW 12.7 mph20.4 kmh 29.84 in1010.5 mb - 0.01 in0.3 mm 0.34 in8.6 mm
02:20 PM 34.6°F1.4°C 23.3°F-4.8°C 63% 1.2 mph NW1.9 kmh NW 8.1 mph13.0 kmh 29.85 in1010.8 mb - 0.01 in0.3 mm 0.34 in8.6 mm
02:10 PM 34.6°F1.4°C 22.9°F-5.1°C 62% 3.5 mph NNW5.6 kmh NNW 3.5 mph5.6 kmh 29.85 in1010.8 mb - 0.01 in0.3 mm 0.34 in8.6 mm
02:00 PM 35.1°F1.7°C 23.0°F-5.0°C 61% 9.2 mph WNW14.8 kmh WNW 16.1 mph25.9 kmh 29.83 in1010.2 mb - 0.01 in0.3 mm 0.34 in8.6 mm
01:50 PM 36.2°F2.3°C 24.1°F-4.4°C 61% 12.7 mph NW20.4 kmh NW 19.6 mph31.5 kmh 29.84 in1010.5 mb - 0.02 in0.5 mm 0.34 in8.6 mm
01:40 PM 36.6°F2.6°C 24.8°F-4.0°C 62% 6.9 mph W11.1 kmh W 15.0 mph24.1 kmh 29.84 in1010.5 mb - 0.02 in0.5 mm 0.34 in8.6 mm
01:30 PM 36.6°F2.6°C 24.8°F-4.0°C 62% 11.5 mph W18.5 kmh W 16.1 mph25.9 kmh 29.82 in1009.8 mb - 0.01 in0.3 mm 0.33 in8.4 mm
01:20 PM 36.8°F2.7°C 25.0°F-3.9°C 62% 2.3 mph WNW3.7 kmh WNW 12.7 mph20.4 kmh 29.82 in1009.8 mb - 0.02 in0.5 mm 0.33 in8.4 mm
01:10 PM 37.2°F2.9°C 25.0°F-3.9°C 61% 4.6 mph WNW7.4 kmh WNW 12.7 mph20.4 kmh 29.82 in1009.8 mb - 0.02 in0.5 mm 0.33 in8.4 mm
01:00 PM 37.4°F3.0°C 25.9°F-3.4°C 63% 9.2 mph NW14.8 kmh NW 13.8 mph22.2 kmh 29.83 in1010.2 mb - 0.03 in0.8 mm 0.33 in8.4 mm
12:50 PM 37.3°F2.9°C 25.5°F-3.6°C 62% 3.5 mph NW5.6 kmh NW 5.8 mph9.3 kmh 29.82 in1009.8 mb - 0.02 in0.5 mm 0.32 in8.1 mm
12:40 PM 37.3°F2.9°C 25.1°F-3.8°C 61% 6.9 mph WNW11.1 kmh WNW 16.1 mph25.9 kmh 29.82 in1009.8 mb - 0.03 in0.8 mm 0.32 in8.1 mm
12:30 PM 37.1°F2.8°C 24.9°F-3.9°C 61% 3.5 mph WNW5.6 kmh WNW 13.8 mph22.2 kmh 29.82 in1009.8 mb - 0.04 in1.0 mm 0.32 in8.1 mm
12:20 PM 37.2°F2.9°C 25.8°F-3.4°C 63% 9.2 mph NW14.8 kmh NW 15.0 mph24.1 kmh 29.82 in1009.8 mb - 0.04 in1.0 mm 0.31 in7.9 mm
12:10 PM 37.3°F2.9°C 25.5°F-3.6°C 62% 9.2 mph NW14.8 kmh NW 12.7 mph20.4 kmh 29.82 in1009.8 mb - 0.05 in1.3 mm 0.31 in7.9 mm
12:00 PM 37.4°F3.0°C 26.7°F-2.9°C 65% 6.9 mph NW11.1 kmh NW 9.2 mph14.8 kmh 29.82 in1009.8 mb - 0.05 in1.3 mm 0.30 in7.6 mm
11:50 AM 37.5°F3.1°C 26.8°F-2.9°C 65% 12.7 mph W20.4 kmh W 19.6 mph31.5 kmh 29.82 in1009.8 mb - 0.06 in1.5 mm 0.30 in7.6 mm
11:40 AM 38.6°F3.7°C 28.2°F-2.1°C 66% 8.1 mph W13.0 kmh W 11.5 mph18.5 kmh 29.82 in1009.8 mb - 0.06 in1.5 mm 0.29 in7.4 mm
11:30 AM 38.5°F3.6°C 27.7°F-2.4°C 65% 10.4 mph NW16.7 kmh NW 11.5 mph18.5 kmh 29.82 in1009.8 mb - 0.05 in1.3 mm 0.28 in7.1 mm
11:20 AM 38.4°F3.6°C 27.3°F-2.6°C 64% 10.4 mph WNW16.7 kmh WNW 11.5 mph18.5 kmh 29.82 in1009.8 mb - 0.05 in1.3 mm 0.27 in6.9 mm
11:10 AM 38.3°F3.5°C 28.3°F-2.1°C 67% 4.6 mph W7.4 kmh W 16.1 mph25.9 kmh 29.82 in1009.8 mb - 0.04 in1.0 mm 0.26 in6.6 mm
11:00 AM 38.2°F3.4°C 28.2°F-2.1°C 67% 9.2 mph WNW14.8 kmh WNW 21.9 mph35.2 kmh 29.82 in1009.8 mb - 0.04 in1.0 mm 0.25 in6.4 mm
10:50 AM 38.4°F3.6°C 28.8°F-1.8°C 68% 6.9 mph W11.1 kmh W 11.5 mph18.5 kmh 29.82 in1009.8 mb - 0.04 in1.0 mm 0.24 in6.1 mm
10:40 AM 38.0°F3.3°C 28.4°F-2.0°C 68% 3.5 mph WNW5.6 kmh WNW 12.7 mph20.4 kmh 29.82 in1009.8 mb - 0.04 in1.0 mm 0.23 in5.8 mm
10:30 AM 37.9°F3.3°C 28.3°F-2.1°C 68% 3.5 mph W5.6 kmh W 13.8 mph22.2 kmh 29.82 in1009.8 mb - 0.04 in1.0 mm 0.23 in5.8 mm
10:20 AM 38.4°F3.6°C 28.4°F-2.0°C 67% 9.2 mph WNW14.8 kmh WNW 12.7 mph20.4 kmh 29.81 in1009.5 mb - 0.04 in1.0 mm 0.22 in5.6 mm
10:10 AM 38.6°F3.7°C 28.9°F-1.7°C 68% 9.2 mph W14.8 kmh W 17.3 mph27.8 kmh 29.80 in1009.1 mb - 0.04 in1.0 mm 0.22 in5.6 mm
10:00 AM 38.3°F3.5°C 29.0°F-1.7°C 69% 11.5 mph W18.5 kmh W 19.6 mph31.5 kmh 29.80 in1009.1 mb - 0.03 in0.8 mm 0.21 in5.3 mm
09:50 AM 38.1°F3.4°C 28.8°F-1.8°C 69% 6.9 mph WNW11.1 kmh WNW 10.4 mph16.7 kmh 29.80 in1009.1 mb - 0.02 in0.5 mm 0.20 in5.1 mm
09:40 AM 37.5°F3.1°C 30.0°F-1.1°C 74% 13.8 mph W22.2 kmh W 20.7 mph33.3 kmh 29.79 in1008.8 mb - 0.02 in0.5 mm 0.19 in4.8 mm
09:30 AM 37.3°F2.9°C 31.1°F-0.5°C 78% 9.2 mph W14.8 kmh W 12.7 mph20.4 kmh 29.79 in1008.8 mb - 0.02 in0.5 mm 0.19 in4.8 mm
09:20 AM 36.8°F2.7°C 31.8°F-0.1°C 82% 8.1 mph W13.0 kmh W 15.0 mph24.1 kmh 29.79 in1008.8 mb - 0.01 in0.3 mm 0.18 in4.6 mm
09:10 AM 36.8°F2.7°C 33.0°F0.6°C 86% 10.4 mph WNW16.7 kmh WNW 15.0 mph24.1 kmh 29.79 in1008.8 mb - 0.01 in0.3 mm 0.18 in4.6 mm
09:00 AM 36.5°F2.5°C 34.1°F1.2°C 91% 10.4 mph WNW16.7 kmh WNW 13.8 mph22.2 kmh 29.79 in1008.8 mb - 0.01 in0.3 mm 0.18 in4.6 mm
08:50 AM 35.9°F2.2°C 34.9°F1.6°C 96% 9.2 mph WNW14.8 kmh WNW 11.5 mph18.5 kmh 29.79 in1008.8 mb - 0.01 in0.3 mm 0.18 in4.6 mm
08:40 AM 35.4°F1.9°C 34.6°F1.4°C 97% 5.8 mph W9.3 kmh W 9.2 mph14.8 kmh 29.79 in1008.8 mb - 0.00 in0.0 mm 0.17 in4.3 mm
08:30 AM 34.4°F1.3°C 33.6°F0.9°C 97% 3.5 mph W5.6 kmh W 6.9 mph11.1 kmh 29.79 in1008.8 mb - 0.00 in0.0 mm 0.17 in4.3 mm
08:20 AM 34.0°F1.1°C 33.2°F0.7°C 97% 2.3 mph W3.7 kmh W 2.3 mph3.7 kmh 29.78 in1008.5 mb - 0.00 in0.0 mm 0.17 in4.3 mm
08:10 AM 33.4°F0.8°C 32.6°F0.3°C 97% 3.5 mph NW5.6 kmh NW 3.5 mph5.6 kmh 29.77 in1008.1 mb - 0.00 in0.0 mm 0.17 in4.3 mm
08:00 AM 33.2°F0.7°C 32.5°F0.3°C 97% 3.5 mph W5.6 kmh W 6.9 mph11.1 kmh 29.76 in1007.8 mb - 0.00 in0.0 mm 0.17 in4.3 mm
07:50 AM 33.4°F0.8°C 32.6°F0.3°C 97% 3.5 mph WSW5.6 kmh WSW 6.9 mph11.1 kmh 29.76 in1007.8 mb - 0.00 in0.0 mm 0.17 in4.3 mm
07:40 AM 33.3°F0.7°C 32.5°F0.3°C 97% 2.3 mph WSW3.7 kmh WSW 3.5 mph5.6 kmh 29.76 in1007.8 mb - 0.00 in0.0 mm 0.17 in4.3 mm
07:30 AM 33.0°F0.6°C 32.2°F0.1°C 97% 3.5 mph WSW5.6 kmh WSW 4.6 mph7.4 kmh 29.76 in1007.8 mb - 0.00 in0.0 mm 0.17 in4.3 mm
07:20 AM 33.2°F0.7°C 32.2°F0.1°C 96% 1.2 mph WNW1.9 kmh WNW 3.5 mph5.6 kmh 29.76 in1007.8 mb - 0.00 in0.0 mm 0.17 in4.3 mm
07:10 AM 33.6°F0.9°C 32.9°F0.5°C 97% 4.6 mph WSW7.4 kmh WSW 8.1 mph13.0 kmh 29.75 in1007.5 mb - 0.00 in0.0 mm 0.17 in4.3 mm
07:00 AM 33.5°F0.8°C 32.8°F0.4°C 97% 3.5 mph W5.6 kmh W 6.9 mph11.1 kmh 29.75 in1007.5 mb - 0.00 in0.0 mm 0.17 in4.3 mm
06:50 AM 33.8°F1.0°C 33.0°F0.6°C 97% 4.6 mph W7.4 kmh W 5.8 mph9.3 kmh 29.75 in1007.5 mb - 0.01 in0.3 mm 0.17 in4.3 mm
06:40 AM 33.9°F1.1°C 32.9°F0.5°C 96% 5.8 mph W9.3 kmh W 5.8 mph9.3 kmh 29.74 in1007.1 mb - 0.01 in0.3 mm 0.17 in4.3 mm
06:30 AM 33.9°F1.1°C 32.9°F0.5°C 96% 4.6 mph W7.4 kmh W 3.5 mph5.6 kmh 29.74 in1007.1 mb - 0.01 in0.3 mm 0.17 in4.3 mm
06:20 AM 34.1°F1.2°C 33.1°F0.6°C 96% 5.8 mph WNW9.3 kmh WNW 6.9 mph11.1 kmh 29.74 in1007.1 mb - 0.01 in0.3 mm 0.17 in4.3 mm
06:10 AM 34.5°F1.4°C 33.7°F0.9°C 97% 5.8 mph W9.3 kmh W 9.2 mph14.8 kmh 29.73 in1006.8 mb - 0.01 in0.3 mm 0.17 in4.3 mm
06:00 AM 34.4°F1.3°C 33.3°F0.7°C 96% 5.8 mph W9.3 kmh W 11.5 mph18.5 kmh 29.73 in1006.8 mb - 0.01 in0.3 mm 0.17 in4.3 mm
05:50 AM 34.4°F1.3°C 33.4°F0.8°C 96% 6.9 mph W11.1 kmh W 10.4 mph16.7 kmh 29.73 in1006.8 mb - 0.00 in0.0 mm 0.16 in4.1 mm
05:40 AM 34.3°F1.3°C 33.3°F0.7°C 96% 2.3 mph WNW3.7 kmh WNW 3.5 mph5.6 kmh 29.73 in1006.8 mb - 0.00 in0.0 mm 0.16 in4.1 mm
05:30 AM 34.2°F1.2°C 33.2°F0.7°C 96% 3.5 mph NW5.6 kmh NW 5.8 mph9.3 kmh 29.72 in1006.4 mb - 0.01 in0.3 mm 0.16 in4.1 mm
05:20 AM 34.2°F1.2°C 33.2°F0.7°C 96% 2.3 mph W3.7 kmh W 4.6 mph7.4 kmh 29.72 in1006.4 mb - 0.01 in0.3 mm 0.16 in4.1 mm
05:10 AM 34.4°F1.3°C 33.3°F0.7°C 96% Calm Calm -- 29.72 in1006.4 mb - 0.01 in0.3 mm 0.16 in4.1 mm
05:00 AM 34.7°F1.5°C 33.7°F0.9°C 96% Calm Calm -- 29.71 in1006.1 mb - 0.02 in0.5 mm 0.16 in4.1 mm
04:50 AM 35.0°F1.7°C 34.0°F1.1°C 96% 5.8 mph W9.3 kmh W 9.2 mph14.8 kmh 29.71 in1006.1 mb - 0.02 in0.5 mm 0.16 in4.1 mm
04:40 AM 35.1°F1.7°C 34.1°F1.2°C 96% 5.8 mph WSW9.3 kmh WSW 9.2 mph14.8 kmh 29.71 in1006.1 mb - 0.03 in0.8 mm 0.16 in4.1 mm
04:30 AM 35.2°F1.8°C 34.2°F1.2°C 96% 5.8 mph WSW9.3 kmh WSW 9.2 mph14.8 kmh 29.70 in1005.8 mb - 0.02 in0.5 mm 0.15 in3.8 mm
04:20 AM 35.2°F1.8°C 34.2°F1.2°C 96% 5.8 mph WSW9.3 kmh WSW 9.2 mph14.8 kmh 29.71 in1006.1 mb - 0.03 in0.8 mm 0.15 in3.8 mm
04:10 AM 35.2°F1.8°C 34.2°F1.2°C 96% 5.8 mph WSW9.3 kmh WSW 8.1 mph13.0 kmh 29.71 in1006.1 mb - 0.03 in0.8 mm 0.15 in3.8 mm
04:00 AM 35.1°F1.7°C 34.1°F1.2°C 96% 5.8 mph WSW9.3 kmh WSW 9.2 mph14.8 kmh 29.71 in1006.1 mb - 0.03 in0.8 mm 0.14 in3.6 mm
03:50 AM 35.0°F1.7°C 34.0°F1.1°C 96% 1.2 mph WSW1.9 kmh WSW 3.5 mph5.6 kmh 29.72 in1006.4 mb - 0.03 in0.8 mm 0.14 in3.6 mm
03:40 AM 35.2°F1.8°C 34.2°F1.2°C 96% Calm Calm 3.5 mph5.6 kmh 29.72 in1006.4 mb - 0.03 in0.8 mm 0.13 in3.3 mm
03:30 AM 35.1°F1.7°C 34.1°F1.2°C 96% 4.6 mph NW7.4 kmh NW 5.8 mph9.3 kmh 29.72 in1006.4 mb - 0.03 in0.8 mm 0.13 in3.3 mm
03:20 AM 35.0°F1.7°C 34.0°F1.1°C 96% 3.5 mph WNW5.6 kmh WNW 4.6 mph7.4 kmh 29.72 in1006.4 mb - 0.04 in1.0 mm 0.13 in3.3 mm
03:10 AM 35.0°F1.7°C 33.9°F1.1°C 96% 5.8 mph WSW9.3 kmh WSW 6.9 mph11.1 kmh 29.71 in1006.1 mb - 0.03 in0.8 mm 0.12 in3.0 mm
03:00 AM 35.0°F1.7°C 34.0°F1.1°C 96% 3.5 mph W5.6 kmh W 3.5 mph5.6 kmh 29.72 in1006.4 mb - 0.03 in0.8 mm 0.11 in2.8 mm
02:50 AM 34.9°F1.6°C 33.9°F1.1°C 96% 3.5 mph WNW5.6 kmh WNW 5.8 mph9.3 kmh 29.72 in1006.4 mb - 0.03 in0.8 mm 0.11 in2.8 mm
02:40 AM 34.9°F1.6°C 33.9°F1.1°C 96% 6.9 mph WSW11.1 kmh WSW 6.9 mph11.1 kmh 29.71 in1006.1 mb - 0.03 in0.8 mm 0.10 in2.5 mm
02:30 AM 34.8°F1.6°C 33.8°F1.0°C 96% 5.8 mph WSW9.3 kmh WSW 8.1 mph13.0 kmh 29.71 in1006.1 mb - 0.03 in0.8 mm 0.10 in2.5 mm
02:20 AM 34.7°F1.5°C 33.7°F0.9°C 96% 3.5 mph WNW5.6 kmh WNW 5.8 mph9.3 kmh 29.72 in1006.4 mb - 0.03 in0.8 mm 0.09 in2.3 mm
02:10 AM 34.7°F1.5°C 33.7°F0.9°C 96% 3.5 mph W5.6 kmh W 5.8 mph9.3 kmh 29.73 in1006.8 mb - 0.04 in1.0 mm 0.09 in2.3 mm
02:00 AM 34.7°F1.5°C 33.7°F0.9°C 96% 3.5 mph WSW5.6 kmh WSW 4.6 mph7.4 kmh 29.71 in1006.1 mb - 0.04 in1.0 mm 0.08 in2.0 mm
01:50 AM 34.7°F1.5°C 33.7°F0.9°C 96% 3.5 mph W5.6 kmh W 5.8 mph9.3 kmh 29.72 in1006.4 mb - 0.05 in1.3 mm 0.08 in2.0 mm
01:40 AM 34.8°F1.6°C 33.8°F1.0°C 96% 2.3 mph W3.7 kmh W 6.9 mph11.1 kmh 29.72 in1006.4 mb - 0.05 in1.3 mm 0.07 in1.8 mm
01:30 AM 34.7°F1.5°C 33.7°F0.9°C 96% 5.8 mph SW9.3 kmh SW 9.2 mph14.8 kmh 29.71 in1006.1 mb - 0.05 in1.3 mm 0.07 in1.8 mm
01:20 AM 34.6°F1.4°C 33.6°F0.9°C 96% 3.5 mph SW5.6 kmh SW 8.1 mph13.0 kmh 29.72 in1006.4 mb - 0.05 in1.3 mm 0.06 in1.5 mm
01:10 AM 34.6°F1.4°C 33.6°F0.9°C 96% 4.6 mph SW7.4 kmh SW 9.2 mph14.8 kmh 29.72 in1006.4 mb - 0.04 in1.0 mm 0.05 in1.3 mm
01:00 AM 34.7°F1.5°C 33.7°F0.9°C 96% 2.3 mph SW3.7 kmh SW 3.5 mph5.6 kmh 29.73 in1006.8 mb - 0.04 in1.0 mm 0.04 in1.0 mm
12:50 AM 34.8°F1.6°C 33.8°F1.0°C 96% 4.6 mph WSW7.4 kmh WSW 8.1 mph13.0 kmh 29.73 in1006.8 mb - 0.03 in0.8 mm 0.03 in0.8 mm
12:40 AM 34.8°F1.6°C 33.8°F1.0°C 96% 6.9 mph WSW11.1 kmh WSW 10.4 mph16.7 kmh 29.74 in1007.1 mb - 0.03 in0.8 mm 0.02 in0.5 mm
12:30 AM 34.8°F1.6°C 33.8°F1.0°C 96% 5.8 mph WNW9.3 kmh WNW 10.4 mph16.7 kmh 29.74 in1007.1 mb - 0.03 in0.8 mm 0.02 in0.5 mm
12:20 AM 34.8°F1.6°C 33.8°F1.0°C 96% 6.9 mph WNW11.1 kmh WNW 10.4 mph16.7 kmh 29.74 in1007.1 mb - 0.03 in0.8 mm 0.01 in0.3 mm
12:10 AM 34.7°F1.5°C 33.7°F0.9°C 96% 5.8 mph SW9.3 kmh SW 10.4 mph16.7 kmh 29.72 in1006.4 mb - 0.03 in0.8 mm 0.01 in0.3 mm
12:00 AM 34.6°F1.4°C 33.3°F0.7°C 95% 2.3 mph SW3.7 kmh SW 3.5 mph5.6 kmh 29.73 in1006.8 mb - 0.03 in0.8 mm 0.03 in0.8 mm